sensor_id;sensor_type;location;lat;lon;timestamp;P1;durP1;ratioP1;P2;durP2;ratioP2
65234;SDS011;51820;48.374;10.930;2023-03-02T00:01:48;24.33;;;10.43;;
65234;SDS011;51820;48.374;10.930;2023-03-02T00:04:21;24.60;;;9.68;;
65234;SDS011;51820;48.374;10.930;2023-03-02T00:06:53;23.30;;;10.10;;
65234;SDS011;51820;48.374;10.930;2023-03-02T00:09:24;26.95;;;10.70;;
65234;SDS011;51820;48.374;10.930;2023-03-02T00:11:53;29.08;;;10.70;;
65234;SDS011;51820;48.374;10.930;2023-03-02T00:14:21;25.52;;;10.00;;
65234;SDS011;51820;48.374;10.930;2023-03-02T00:16:51;24.30;;;10.48;;
65234;SDS011;51820;48.374;10.930;2023-03-02T00:19:19;23.77;;;10.13;;
65234;SDS011;51820;48.374;10.930;2023-03-02T00:21:48;28.48;;;10.68;;
65234;SDS011;51820;48.374;10.930;2023-03-02T00:24:16;25.45;;;10.65;;
65234;SDS011;51820;48.374;10.930;2023-03-02T00:26:44;22.60;;;10.10;;
65234;SDS011;51820;48.374;10.930;2023-03-02T00:29:13;27.00;;;10.15;;
65234;SDS011;51820;48.374;10.930;2023-03-02T00:31:41;24.33;;;9.67;;
65234;SDS011;51820;48.374;10.930;2023-03-02T00:34:11;26.70;;;10.50;;
65234;SDS011;51820;48.374;10.930;2023-03-02T00:36:39;22.83;;;10.38;;
65234;SDS011;51820;48.374;10.930;2023-03-02T00:39:08;26.02;;;10.13;;
65234;SDS011;51820;48.374;10.930;2023-03-02T00:41:37;23.70;;;10.25;;
65234;SDS011;51820;48.374;10.930;2023-03-02T00:44:06;24.57;;;9.73;;
65234;SDS011;51820;48.374;10.930;2023-03-02T00:46:34;24.00;;;9.40;;
65234;SDS011;51820;48.374;10.930;2023-03-02T00:49:03;20.45;;;9.55;;
65234;SDS011;51820;48.374;10.930;2023-03-02T00:51:32;22.98;;;9.75;;
65234;SDS011;51820;48.374;10.930;2023-03-02T00:54:01;22.95;;;9.77;;
65234;SDS011;51820;48.374;10.930;2023-03-02T00:56:29;21.70;;;9.47;;
65234;SDS011;51820;48.374;10.930;2023-03-02T00:59:02;24.40;;;10.13;;
65234;SDS011;51820;48.374;10.930;2023-03-02T01:01:32;25.13;;;10.68;;
65234;SDS011;51820;48.374;10.930;2023-03-02T01:04:01;23.63;;;9.82;;
65234;SDS011;51820;48.374;10.930;2023-03-02T01:06:30;23.35;;;9.98;;
65234;SDS011;51820;48.374;10.930;2023-03-02T01:09:02;21.03;;;9.83;;
65234;SDS011;51820;48.374;10.930;2023-03-02T01:11:30;24.52;;;9.60;;
65234;SDS011;51820;48.374;10.930;2023-03-02T01:13:59;21.48;;;9.65;;
65234;SDS011;51820;48.374;10.930;2023-03-02T01:16:27;22.63;;;9.82;;
65234;SDS011;51820;48.374;10.930;2023-03-02T01:18:56;21.98;;;9.27;;
65234;SDS011;51820;48.374;10.930;2023-03-02T01:21:25;22.73;;;8.73;;
65234;SDS011;51820;48.374;10.930;2023-03-02T01:23:53;23.02;;;9.80;;
65234;SDS011;51820;48.374;10.930;2023-03-02T01:26:23;24.58;;;9.65;;
65234;SDS011;51820;48.374;10.930;2023-03-02T01:28:51;24.35;;;9.40;;
65234;SDS011;51820;48.374;10.930;2023-03-02T01:31:20;24.08;;;10.18;;
65234;SDS011;51820;48.374;10.930;2023-03-02T01:33:50;20.57;;;9.17;;
65234;SDS011;51820;48.374;10.930;2023-03-02T01:36:18;24.08;;;9.50;;
65234;SDS011;51820;48.374;10.930;2023-03-02T01:38:47;22.25;;;9.15;;
65234;SDS011;51820;48.374;10.930;2023-03-02T01:41:16;23.67;;;9.43;;
65234;SDS011;51820;48.374;10.930;2023-03-02T01:43:46;25.65;;;9.43;;
65234;SDS011;51820;48.374;10.930;2023-03-02T01:46:14;22.33;;;9.20;;
65234;SDS011;51820;48.374;10.930;2023-03-02T01:48:49;20.17;;;9.07;;
65234;SDS011;51820;48.374;10.930;2023-03-02T01:51:29;24.45;;;9.38;;
65234;SDS011;51820;48.374;10.930;2023-03-02T01:54:04;23.63;;;9.32;;
65234;SDS011;51820;48.374;10.930;2023-03-02T01:56:36;22.85;;;8.93;;
65234;SDS011;51820;48.374;10.930;2023-03-02T01:59:09;25.53;;;9.23;;
65234;SDS011;51820;48.374;10.930;2023-03-02T02:01:40;25.10;;;9.70;;
65234;SDS011;51820;48.374;10.930;2023-03-02T02:04:15;21.95;;;9.65;;
65234;SDS011;51820;48.374;10.930;2023-03-02T02:06:46;22.35;;;9.25;;
65234;SDS011;51820;48.374;10.930;2023-03-02T02:09:17;21.00;;;8.73;;
65234;SDS011;51820;48.374;10.930;2023-03-02T02:11:47;20.47;;;8.33;;
65234;SDS011;51820;48.374;10.930;2023-03-02T02:14:17;20.80;;;9.68;;
65234;SDS011;51820;48.374;10.930;2023-03-02T02:16:46;21.10;;;9.43;;
65234;SDS011;51820;48.374;10.930;2023-03-02T02:19:17;23.92;;;9.40;;
65234;SDS011;51820;48.374;10.930;2023-03-02T02:21:57;22.75;;;9.52;;
65234;SDS011;51820;48.374;10.930;2023-03-02T02:24:26;21.33;;;8.47;;
65234;SDS011;51820;48.374;10.930;2023-03-02T02:26:59;22.63;;;9.23;;
65234;SDS011;51820;48.374;10.930;2023-03-02T02:29:29;21.52;;;8.45;;
65234;SDS011;51820;48.374;10.930;2023-03-02T02:32:00;18.67;;;8.55;;
65234;SDS011;51820;48.374;10.930;2023-03-02T02:34:33;22.48;;;9.20;;
65234;SDS011;51820;48.374;10.930;2023-03-02T02:37:06;21.47;;;8.83;;
65234;SDS011;51820;48.374;10.930;2023-03-02T02:39:39;19.83;;;8.95;;
65234;SDS011;51820;48.374;10.930;2023-03-02T02:42:14;17.70;;;8.35;;
65234;SDS011;51820;48.374;10.930;2023-03-02T02:44:45;20.65;;;9.00;;
65234;SDS011;51820;48.374;10.930;2023-03-02T02:47:15;21.27;;;8.63;;
65234;SDS011;51820;48.374;10.930;2023-03-02T02:49:45;19.67;;;8.53;;
65234;SDS011;51820;48.374;10.930;2023-03-02T02:52:16;21.73;;;8.30;;
65234;SDS011;51820;48.374;10.930;2023-03-02T02:54:47;21.60;;;8.70;;
65234;SDS011;51820;48.374;10.930;2023-03-02T02:57:18;18.10;;;8.25;;
65234;SDS011;51820;48.374;10.930;2023-03-02T02:59:51;21.98;;;8.85;;
65234;SDS011;51820;48.374;10.930;2023-03-02T03:02:23;22.17;;;8.60;;
65234;SDS011;51820;48.374;10.930;2023-03-02T03:04:54;18.77;;;8.30;;
65234;SDS011;51820;48.374;10.930;2023-03-02T03:07:30;22.08;;;8.50;;
65234;SDS011;51820;48.374;10.930;2023-03-02T03:10:04;18.88;;;7.95;;
65234;SDS011;51820;48.374;10.930;2023-03-02T03:12:39;19.30;;;8.38;;
65234;SDS011;51820;48.374;10.930;2023-03-02T03:15:08;19.70;;;8.17;;
65234;SDS011;51820;48.374;10.930;2023-03-02T03:17:37;19.67;;;8.75;;
65234;SDS011;51820;48.374;10.930;2023-03-02T03:20:07;22.40;;;9.80;;
65234;SDS011;51820;48.374;10.930;2023-03-02T03:22:41;21.17;;;8.48;;
65234;SDS011;51820;48.374;10.930;2023-03-02T03:25:11;20.52;;;8.80;;
65234;SDS011;51820;48.374;10.930;2023-03-02T03:27:44;19.87;;;8.37;;
65234;SDS011;51820;48.374;10.930;2023-03-02T03:30:13;24.67;;;8.70;;
65234;SDS011;51820;48.374;10.930;2023-03-02T03:32:42;21.00;;;8.10;;
65234;SDS011;51820;48.374;10.930;2023-03-02T03:35:13;20.27;;;8.70;;
65234;SDS011;51820;48.374;10.930;2023-03-02T03:37:41;27.60;;;9.63;;
65234;SDS011;51820;48.374;10.930;2023-03-02T03:40:12;20.13;;;8.90;;
65234;SDS011;51820;48.374;10.930;2023-03-02T03:42:44;22.27;;;8.13;;
65234;SDS011;51820;48.374;10.930;2023-03-02T03:45:13;20.17;;;9.38;;
65234;SDS011;51820;48.374;10.930;2023-03-02T03:47:43;22.83;;;8.60;;
65234;SDS011;51820;48.374;10.930;2023-03-02T03:50:11;20.90;;;8.93;;
65234;SDS011;51820;48.374;10.930;2023-03-02T03:52:41;22.87;;;9.13;;
65234;SDS011;51820;48.374;10.930;2023-03-02T03:55:15;19.35;;;8.05;;
65234;SDS011;51820;48.374;10.930;2023-03-02T03:57:48;26.08;;;9.93;;
65234;SDS011;51820;48.374;10.930;2023-03-02T04:00:17;20.73;;;9.02;;
65234;SDS011;51820;48.374;10.930;2023-03-02T04:02:55;22.42;;;8.90;;
65234;SDS011;51820;48.374;10.930;2023-03-02T04:05:26;28.53;;;9.57;;
65234;SDS011;51820;48.374;10.930;2023-03-02T04:07:58;21.00;;;8.75;;
65234;SDS011;51820;48.374;10.930;2023-03-02T04:10:28;22.13;;;8.80;;
65234;SDS011;51820;48.374;10.930;2023-03-02T04:12:59;20.58;;;7.80;;
65234;SDS011;51820;48.374;10.930;2023-03-02T04:15:27;20.88;;;8.82;;
65234;SDS011;51820;48.374;10.930;2023-03-02T04:17:58;24.03;;;9.13;;
65234;SDS011;51820;48.374;10.930;2023-03-02T04:20:29;25.00;;;9.52;;
65234;SDS011;51820;48.374;10.930;2023-03-02T04:22:58;18.52;;;8.23;;
65234;SDS011;51820;48.374;10.930;2023-03-02T04:25:27;20.17;;;8.48;;
65234;SDS011;51820;48.374;10.930;2023-03-02T04:28:03;19.30;;;8.75;;
65234;SDS011;51820;48.374;10.930;2023-03-02T04:30:35;23.40;;;9.17;;
65234;SDS011;51820;48.374;10.930;2023-03-02T04:33:04;22.75;;;8.82;;
65234;SDS011;51820;48.374;10.930;2023-03-02T04:35:33;25.00;;;9.57;;
65234;SDS011;51820;48.374;10.930;2023-03-02T04:38:03;23.75;;;8.70;;
65234;SDS011;51820;48.374;10.930;2023-03-02T04:40:32;19.60;;;8.50;;
65234;SDS011;51820;48.374;10.930;2023-03-02T04:43:00;24.27;;;9.67;;
65234;SDS011;51820;48.374;10.930;2023-03-02T04:45:32;20.58;;;8.70;;
65234;SDS011;51820;48.374;10.930;2023-03-02T04:48:01;23.10;;;8.88;;
65234;SDS011;51820;48.374;10.930;2023-03-02T04:50:29;21.73;;;8.73;;
65234;SDS011;51820;48.374;10.930;2023-03-02T04:52:58;19.63;;;8.13;;
65234;SDS011;51820;48.374;10.930;2023-03-02T04:55:26;20.50;;;8.20;;
65234;SDS011;51820;48.374;10.930;2023-03-02T04:57:55;21.00;;;8.13;;
65234;SDS011;51820;48.374;10.930;2023-03-02T05:00:23;20.05;;;8.27;;
65234;SDS011;51820;48.374;10.930;2023-03-02T05:02:55;21.52;;;9.73;;
65234;SDS011;51820;48.374;10.930;2023-03-02T05:05:23;19.98;;;8.90;;
65234;SDS011;51820;48.374;10.930;2023-03-02T05:07:52;22.87;;;9.47;;
65234;SDS011;51820;48.374;10.930;2023-03-02T05:10:21;18.63;;;8.93;;
65234;SDS011;51820;48.374;10.930;2023-03-02T05:12:50;19.83;;;8.85;;
65234;SDS011;51820;48.374;10.930;2023-03-02T05:15:25;23.92;;;9.35;;
65234;SDS011;51820;48.374;10.930;2023-03-02T05:17:56;25.48;;;9.45;;
65234;SDS011;51820;48.374;10.930;2023-03-02T05:20:25;21.93;;;8.63;;
65234;SDS011;51820;48.374;10.930;2023-03-02T05:22:56;20.42;;;8.57;;
65234;SDS011;51820;48.374;10.930;2023-03-02T05:25:26;20.33;;;8.57;;
65234;SDS011;51820;48.374;10.930;2023-03-02T05:27:56;21.35;;;8.68;;
65234;SDS011;51820;48.374;10.930;2023-03-02T05:30:24;21.30;;;8.95;;
65234;SDS011;51820;48.374;10.930;2023-03-02T05:32:53;21.43;;;9.30;;
65234;SDS011;51820;48.374;10.930;2023-03-02T05:35:23;18.42;;;8.02;;
65234;SDS011;51820;48.374;10.930;2023-03-02T05:37:52;21.52;;;8.38;;
65234;SDS011;51820;48.374;10.930;2023-03-02T05:40:21;23.83;;;8.85;;
65234;SDS011;51820;48.374;10.930;2023-03-02T05:42:49;20.90;;;9.15;;
65234;SDS011;51820;48.374;10.930;2023-03-02T05:45:18;21.30;;;9.10;;
65234;SDS011;51820;48.374;10.930;2023-03-02T05:47:48;19.75;;;8.77;;
65234;SDS011;51820;48.374;10.930;2023-03-02T05:50:17;21.13;;;9.38;;
65234;SDS011;51820;48.374;10.930;2023-03-02T05:52:48;27.27;;;9.07;;
65234;SDS011;51820;48.374;10.930;2023-03-02T05:55:17;18.67;;;9.20;;
65234;SDS011;51820;48.374;10.930;2023-03-02T05:57:45;21.73;;;8.20;;
65234;SDS011;51820;48.374;10.930;2023-03-02T06:00:15;27.20;;;9.45;;
65234;SDS011;51820;48.374;10.930;2023-03-02T06:02:44;26.50;;;9.73;;
65234;SDS011;51820;48.374;10.930;2023-03-02T06:05:14;20.70;;;8.65;;
65234;SDS011;51820;48.374;10.930;2023-03-02T06:07:43;25.55;;;9.68;;
65234;SDS011;51820;48.374;10.930;2023-03-02T06:10:13;22.00;;;9.20;;
65234;SDS011;51820;48.374;10.930;2023-03-02T06:12:42;23.45;;;9.95;;
65234;SDS011;51820;48.374;10.930;2023-03-02T06:15:10;24.05;;;10.10;;
65234;SDS011;51820;48.374;10.930;2023-03-02T06:17:39;25.08;;;9.98;;
65234;SDS011;51820;48.374;10.930;2023-03-02T06:20:07;29.42;;;11.27;;
65234;SDS011;51820;48.374;10.930;2023-03-02T06:22:40;29.77;;;12.30;;
65234;SDS011;51820;48.374;10.930;2023-03-02T06:25:11;39.17;;;13.85;;
65234;SDS011;51820;48.374;10.930;2023-03-02T06:27:42;31.23;;;12.70;;
65234;SDS011;51820;48.374;10.930;2023-03-02T06:30:12;31.85;;;12.88;;
65234;SDS011;51820;48.374;10.930;2023-03-02T06:32:42;25.52;;;11.77;;
65234;SDS011;51820;48.374;10.930;2023-03-02T06:35:11;28.03;;;12.77;;
65234;SDS011;51820;48.374;10.930;2023-03-02T06:37:40;31.90;;;12.05;;
65234;SDS011;51820;48.374;10.930;2023-03-02T06:40:10;31.70;;;11.98;;
65234;SDS011;51820;48.374;10.930;2023-03-02T06:42:41;26.02;;;11.57;;
65234;SDS011;51820;48.374;10.930;2023-03-02T06:45:09;30.13;;;11.90;;
65234;SDS011;51820;48.374;10.930;2023-03-02T06:47:38;33.87;;;12.00;;
65234;SDS011;51820;48.374;10.930;2023-03-02T06:50:07;27.20;;;11.38;;
65234;SDS011;51820;48.374;10.930;2023-03-02T06:52:36;29.30;;;12.23;;
65234;SDS011;51820;48.374;10.930;2023-03-02T06:55:05;29.85;;;12.38;;
65234;SDS011;51820;48.374;10.930;2023-03-02T06:57:34;26.67;;;11.85;;
65234;SDS011;51820;48.374;10.930;2023-03-02T07:00:05;29.77;;;12.07;;
65234;SDS011;51820;48.374;10.930;2023-03-02T07:02:39;33.00;;;11.80;;
65234;SDS011;51820;48.374;10.930;2023-03-02T07:05:08;29.05;;;12.02;;
65234;SDS011;51820;48.374;10.930;2023-03-02T07:07:36;26.98;;;11.50;;
65234;SDS011;51820;48.374;10.930;2023-03-02T07:10:05;25.60;;;10.90;;
65234;SDS011;51820;48.374;10.930;2023-03-02T07:12:38;30.73;;;11.77;;
65234;SDS011;51820;48.374;10.930;2023-03-02T07:15:09;24.88;;;10.07;;
65234;SDS011;51820;48.374;10.930;2023-03-02T07:17:40;27.67;;;10.02;;
65234;SDS011;51820;48.374;10.930;2023-03-02T07:20:10;24.40;;;8.77;;
65234;SDS011;51820;48.374;10.930;2023-03-02T07:22:39;22.63;;;9.38;;
65234;SDS011;51820;48.374;10.930;2023-03-02T07:25:12;22.23;;;8.53;;
65234;SDS011;51820;48.374;10.930;2023-03-02T07:27:41;21.13;;;9.00;;
65234;SDS011;51820;48.374;10.930;2023-03-02T07:30:12;23.55;;;9.25;;
65234;SDS011;51820;48.374;10.930;2023-03-02T07:32:41;24.23;;;9.63;;
65234;SDS011;51820;48.374;10.930;2023-03-02T07:35:09;26.80;;;9.48;;
65234;SDS011;51820;48.374;10.930;2023-03-02T07:37:38;22.67;;;9.20;;
65234;SDS011;51820;48.374;10.930;2023-03-02T07:40:07;22.95;;;9.43;;
65234;SDS011;51820;48.374;10.930;2023-03-02T07:42:37;24.30;;;8.80;;
65234;SDS011;51820;48.374;10.930;2023-03-02T07:45:06;24.20;;;9.90;;
65234;SDS011;51820;48.374;10.930;2023-03-02T07:47:36;24.52;;;9.25;;
65234;SDS011;51820;48.374;10.930;2023-03-02T07:50:04;21.67;;;8.87;;
65234;SDS011;51820;48.374;10.930;2023-03-02T07:52:33;24.85;;;10.45;;
65234;SDS011;51820;48.374;10.930;2023-03-02T07:55:02;23.67;;;8.77;;
65234;SDS011;51820;48.374;10.930;2023-03-02T07:57:30;21.05;;;8.50;;
65234;SDS011;51820;48.374;10.930;2023-03-02T07:59:59;21.30;;;8.68;;
65234;SDS011;51820;48.374;10.930;2023-03-02T08:02:38;24.43;;;9.53;;
65234;SDS011;51820;48.374;10.930;2023-03-02T08:05:07;21.83;;;9.30;;
65234;SDS011;51820;48.374;10.930;2023-03-02T08:07:36;21.45;;;8.65;;
65234;SDS011;51820;48.374;10.930;2023-03-02T08:10:05;24.05;;;9.50;;
65234;SDS011;51820;48.374;10.930;2023-03-02T08:12:34;21.65;;;8.80;;
65234;SDS011;51820;48.374;10.930;2023-03-02T08:15:02;22.97;;;8.83;;
65234;SDS011;51820;48.374;10.930;2023-03-02T08:17:31;19.48;;;7.93;;
65234;SDS011;51820;48.374;10.930;2023-03-02T08:20:01;23.77;;;8.93;;
65234;SDS011;51820;48.374;10.930;2023-03-02T08:22:30;22.80;;;9.35;;
65234;SDS011;51820;48.374;10.930;2023-03-02T08:24:59;22.08;;;9.07;;
65234;SDS011;51820;48.374;10.930;2023-03-02T08:27:27;23.90;;;9.37;;
65234;SDS011;51820;48.374;10.930;2023-03-02T08:29:55;22.20;;;9.30;;
65234;SDS011;51820;48.374;10.930;2023-03-02T08:32:24;27.08;;;9.52;;
65234;SDS011;51820;48.374;10.930;2023-03-02T08:34:52;20.27;;;7.93;;
65234;SDS011;51820;48.374;10.930;2023-03-02T08:37:22;20.48;;;8.55;;
65234;SDS011;51820;48.374;10.930;2023-03-02T08:39:50;23.23;;;8.83;;
65234;SDS011;51820;48.374;10.930;2023-03-02T08:42:19;23.73;;;9.25;;
65234;SDS011;51820;48.374;10.930;2023-03-02T08:44:47;20.60;;;8.55;;
65234;SDS011;51820;48.374;10.930;2023-03-02T08:47:15;22.00;;;9.07;;
65234;SDS011;51820;48.374;10.930;2023-03-02T08:49:44;23.35;;;9.52;;
65234;SDS011;51820;48.374;10.930;2023-03-02T08:52:13;18.67;;;8.30;;
65234;SDS011;51820;48.374;10.930;2023-03-02T08:54:43;21.98;;;9.23;;
65234;SDS011;51820;48.374;10.930;2023-03-02T08:57:12;23.75;;;9.23;;
65234;SDS011;51820;48.374;10.930;2023-03-02T08:59:40;20.15;;;8.77;;
65234;SDS011;51820;48.374;10.930;2023-03-02T09:02:09;25.05;;;8.93;;
65234;SDS011;51820;48.374;10.930;2023-03-02T09:04:38;22.87;;;9.37;;
65234;SDS011;51820;48.374;10.930;2023-03-02T09:07:08;26.92;;;10.40;;
65234;SDS011;51820;48.374;10.930;2023-03-02T09:09:44;27.77;;;9.95;;
65234;SDS011;51820;48.374;10.930;2023-03-02T09:12:16;19.20;;;8.13;;
65234;SDS011;51820;48.374;10.930;2023-03-02T09:14:56;22.33;;;9.50;;
65234;SDS011;51820;48.374;10.930;2023-03-02T09:17:31;20.73;;;8.30;;
65234;SDS011;51820;48.374;10.930;2023-03-02T09:20:22;19.77;;;8.57;;
65234;SDS011;51820;48.374;10.930;2023-03-02T09:22:54;23.95;;;10.18;;
65234;SDS011;51820;48.374;10.930;2023-03-02T09:25:31;23.10;;;9.45;;
65234;SDS011;51820;48.374;10.930;2023-03-02T09:28:02;19.65;;;9.13;;
65234;SDS011;51820;48.374;10.930;2023-03-02T09:30:46;24.83;;;9.93;;
65234;SDS011;51820;48.374;10.930;2023-03-02T09:33:26;29.38;;;9.95;;
65234;SDS011;51820;48.374;10.930;2023-03-02T09:35:54;24.48;;;10.50;;
65234;SDS011;51820;48.374;10.930;2023-03-02T09:38:23;23.95;;;9.85;;
65234;SDS011;51820;48.374;10.930;2023-03-02T09:41:00;27.50;;;8.93;;
65234;SDS011;51820;48.374;10.930;2023-03-02T09:43:52;23.53;;;9.77;;
65234;SDS011;51820;48.374;10.930;2023-03-02T09:46:32;20.95;;;8.90;;
65234;SDS011;51820;48.374;10.930;2023-03-02T09:49:06;20.35;;;8.43;;
65234;SDS011;51820;48.374;10.930;2023-03-02T09:51:45;21.98;;;9.15;;
65234;SDS011;51820;48.374;10.930;2023-03-02T09:54:22;24.90;;;9.32;;
65234;SDS011;51820;48.374;10.930;2023-03-02T09:56:52;19.67;;;9.37;;
65234;SDS011;51820;48.374;10.930;2023-03-02T09:59:25;27.00;;;9.90;;
65234;SDS011;51820;48.374;10.930;2023-03-02T10:01:56;22.42;;;9.55;;
65234;SDS011;51820;48.374;10.930;2023-03-02T10:04:29;20.40;;;10.07;;
65234;SDS011;51820;48.374;10.930;2023-03-02T10:07:09;20.52;;;10.20;;
65234;SDS011;51820;48.374;10.930;2023-03-02T10:09:40;20.77;;;9.83;;
65234;SDS011;51820;48.374;10.930;2023-03-02T10:12:20;22.48;;;9.60;;
65234;SDS011;51820;48.374;10.930;2023-03-02T10:15:09;19.15;;;9.45;;
65234;SDS011;51820;48.374;10.930;2023-03-02T10:17:43;25.13;;;10.30;;
65234;SDS011;51820;48.374;10.930;2023-03-02T10:20:23;21.25;;;10.00;;
65234;SDS011;51820;48.374;10.930;2023-03-02T10:23:06;18.67;;;9.23;;
65234;SDS011;51820;48.374;10.930;2023-03-02T10:25:45;22.88;;;9.57;;
65234;SDS011;51820;48.374;10.930;2023-03-02T10:28:19;20.13;;;9.05;;
65234;SDS011;51820;48.374;10.930;2023-03-02T10:30:49;21.42;;;8.48;;
65234;SDS011;51820;48.374;10.930;2023-03-02T10:33:22;19.30;;;9.15;;
65234;SDS011;51820;48.374;10.930;2023-03-02T10:35:51;18.60;;;8.37;;
65234;SDS011;51820;48.374;10.930;2023-03-02T10:38:20;17.23;;;8.25;;
65234;SDS011;51820;48.374;10.930;2023-03-02T10:40:50;18.13;;;8.27;;
65234;SDS011;51820;48.374;10.930;2023-03-02T10:43:27;19.60;;;7.85;;
65234;SDS011;51820;48.374;10.930;2023-03-02T10:46:00;14.85;;;7.70;;
65234;SDS011;51820;48.374;10.930;2023-03-02T10:48:29;17.70;;;8.00;;
65234;SDS011;51820;48.374;10.930;2023-03-02T10:50:57;17.42;;;7.85;;
65234;SDS011;51820;48.374;10.930;2023-03-02T10:53:26;21.50;;;8.57;;
65234;SDS011;51820;48.374;10.930;2023-03-02T10:55:55;19.75;;;7.88;;
65234;SDS011;51820;48.374;10.930;2023-03-02T10:58:24;21.83;;;8.80;;
65234;SDS011;51820;48.374;10.930;2023-03-02T11:00:57;17.17;;;7.97;;
65234;SDS011;51820;48.374;10.930;2023-03-02T11:03:27;19.70;;;8.70;;
65234;SDS011;51820;48.374;10.930;2023-03-02T11:05:56;16.05;;;7.78;;
65234;SDS011;51820;48.374;10.930;2023-03-02T11:08:26;17.17;;;7.97;;
65234;SDS011;51820;48.374;10.930;2023-03-02T11:10:57;21.17;;;8.02;;
65234;SDS011;51820;48.374;10.930;2023-03-02T11:13:29;17.37;;;8.00;;
65234;SDS011;51820;48.374;10.930;2023-03-02T11:15:59;21.58;;;8.63;;
65234;SDS011;51820;48.374;10.930;2023-03-02T11:18:30;17.02;;;7.60;;
65234;SDS011;51820;48.374;10.930;2023-03-02T11:21:02;16.98;;;8.48;;
65234;SDS011;51820;48.374;10.930;2023-03-02T11:23:34;17.60;;;8.00;;
65234;SDS011;51820;48.374;10.930;2023-03-02T11:26:12;20.10;;;7.30;;
65234;SDS011;51820;48.374;10.930;2023-03-02T11:28:47;15.13;;;7.90;;
65234;SDS011;51820;48.374;10.930;2023-03-02T11:31:22;17.17;;;7.68;;
65234;SDS011;51820;48.374;10.930;2023-03-02T11:34:03;17.55;;;8.65;;
65234;SDS011;51820;48.374;10.930;2023-03-02T11:36:47;16.52;;;7.65;;
65234;SDS011;51820;48.374;10.930;2023-03-02T11:39:24;16.63;;;7.60;;
65234;SDS011;51820;48.374;10.930;2023-03-02T11:41:57;21.63;;;7.63;;
65234;SDS011;51820;48.374;10.930;2023-03-02T11:44:27;16.17;;;7.72;;
65234;SDS011;51820;48.374;10.930;2023-03-02T11:46:57;20.20;;;8.23;;
65234;SDS011;51820;48.374;10.930;2023-03-02T11:49:32;16.88;;;7.65;;
65234;SDS011;51820;48.374;10.930;2023-03-02T11:52:04;19.03;;;7.60;;
65234;SDS011;51820;48.374;10.930;2023-03-02T11:54:42;16.15;;;6.80;;
65234;SDS011;51820;48.374;10.930;2023-03-02T11:57:16;15.15;;;7.40;;
65234;SDS011;51820;48.374;10.930;2023-03-02T11:59:50;18.55;;;7.10;;
65234;SDS011;51820;48.374;10.930;2023-03-02T12:02:20;15.00;;;7.82;;
65234;SDS011;51820;48.374;10.930;2023-03-02T12:04:49;14.43;;;6.73;;
65234;SDS011;51820;48.374;10.930;2023-03-02T12:07:28;14.10;;;7.57;;
65234;SDS011;51820;48.374;10.930;2023-03-02T12:09:58;23.13;;;7.57;;
65234;SDS011;51820;48.374;10.930;2023-03-02T12:12:37;14.73;;;7.03;;
65234;SDS011;51820;48.374;10.930;2023-03-02T12:18:01;15.10;;;7.73;;
65234;SDS011;51820;48.374;10.930;2023-03-02T12:20:30;15.27;;;7.53;;
65234;SDS011;51820;48.374;10.930;2023-03-02T12:23:08;15.18;;;8.13;;
65234;SDS011;51820;48.374;10.930;2023-03-02T12:25:48;19.02;;;7.95;;
65234;SDS011;51820;48.374;10.930;2023-03-02T12:28:24;16.83;;;8.13;;
65234;SDS011;51820;48.374;10.930;2023-03-02T12:31:05;16.47;;;8.10;;
65234;SDS011;51820;48.374;10.930;2023-03-02T12:33:43;14.52;;;7.55;;
65234;SDS011;51820;48.374;10.930;2023-03-02T12:36:15;28.52;;;15.82;;
65234;SDS011;51820;48.374;10.930;2023-03-02T12:38:53;17.15;;;9.18;;
65234;SDS011;51820;48.374;10.930;2023-03-02T12:41:37;15.57;;;8.40;;
65234;SDS011;51820;48.374;10.930;2023-03-02T12:44:27;17.87;;;7.80;;
65234;SDS011;51820;48.374;10.930;2023-03-02T12:47:09;17.30;;;7.93;;
65234;SDS011;51820;48.374;10.930;2023-03-02T12:49:45;17.15;;;8.50;;
65234;SDS011;51820;48.374;10.930;2023-03-02T12:52:19;18.33;;;7.72;;
65234;SDS011;51820;48.374;10.930;2023-03-02T12:54:57;17.73;;;8.63;;
65234;SDS011;51820;48.374;10.930;2023-03-02T12:57:31;17.73;;;8.07;;
65234;SDS011;51820;48.374;10.930;2023-03-02T13:00:01;15.60;;;8.10;;
65234;SDS011;51820;48.374;10.930;2023-03-02T13:02:32;17.30;;;8.02;;
65234;SDS011;51820;48.374;10.930;2023-03-02T13:05:04;19.20;;;7.75;;
65234;SDS011;51820;48.374;10.930;2023-03-02T13:07:38;20.00;;;8.55;;
65234;SDS011;51820;48.374;10.930;2023-03-02T13:10:15;19.83;;;9.00;;
65234;SDS011;51820;48.374;10.930;2023-03-02T13:12:49;14.98;;;8.27;;
65234;SDS011;51820;48.374;10.930;2023-03-02T13:15:17;15.18;;;8.02;;
65234;SDS011;51820;48.374;10.930;2023-03-02T13:17:52;14.57;;;7.95;;
65234;SDS011;51820;48.374;10.930;2023-03-02T13:20:23;22.98;;;8.55;;
65234;SDS011;51820;48.374;10.930;2023-03-02T13:22:53;16.70;;;8.30;;
65234;SDS011;51820;48.374;10.930;2023-03-02T13:25:25;17.13;;;7.93;;
65234;SDS011;51820;48.374;10.930;2023-03-02T13:27:55;17.88;;;8.02;;
65234;SDS011;51820;48.374;10.930;2023-03-02T13:30:27;16.60;;;7.95;;
65234;SDS011;51820;48.374;10.930;2023-03-02T13:32:59;15.02;;;7.65;;
65234;SDS011;51820;48.374;10.930;2023-03-02T13:35:30;16.23;;;7.53;;
65234;SDS011;51820;48.374;10.930;2023-03-02T13:38:00;27.83;;;12.15;;
65234;SDS011;51820;48.374;10.930;2023-03-02T13:40:38;22.30;;;12.93;;
65234;SDS011;51820;48.374;10.930;2023-03-02T13:46:05;24.58;;;12.68;;
65234;SDS011;51820;48.374;10.930;2023-03-02T13:48:53;22.83;;;12.17;;
65234;SDS011;51820;48.374;10.930;2023-03-02T13:51:36;23.13;;;12.05;;
65234;SDS011;51820;48.374;10.930;2023-03-02T13:54:11;23.80;;;12.77;;
65234;SDS011;51820;48.374;10.930;2023-03-02T13:56:46;24.33;;;12.82;;
65234;SDS011;51820;48.374;10.930;2023-03-02T13:59:17;21.08;;;11.77;;
65234;SDS011;51820;48.374;10.930;2023-03-02T14:01:47;22.30;;;12.80;;
65234;SDS011;51820;48.374;10.930;2023-03-02T14:04:20;22.42;;;11.95;;
65234;SDS011;51820;48.374;10.930;2023-03-02T14:06:50;20.50;;;11.70;;
65234;SDS011;51820;48.374;10.930;2023-03-02T14:09:19;25.10;;;12.73;;
65234;SDS011;51820;48.374;10.930;2023-03-02T14:11:48;26.92;;;12.93;;
65234;SDS011;51820;48.374;10.930;2023-03-02T14:14:19;23.13;;;12.57;;
65234;SDS011;51820;48.374;10.930;2023-03-02T14:16:53;25.60;;;12.90;;
65234;SDS011;51820;48.374;10.930;2023-03-02T14:19:22;26.27;;;13.20;;
65234;SDS011;51820;48.374;10.930;2023-03-02T14:21:51;23.75;;;13.10;;
65234;SDS011;51820;48.374;10.930;2023-03-02T14:24:20;24.38;;;12.75;;
65234;SDS011;51820;48.374;10.930;2023-03-02T14:26:53;25.13;;;12.90;;
65234;SDS011;51820;48.374;10.930;2023-03-02T14:29:24;23.10;;;12.50;;
65234;SDS011;51820;48.374;10.930;2023-03-02T14:31:53;24.90;;;11.98;;
65234;SDS011;51820;48.374;10.930;2023-03-02T14:34:30;23.40;;;11.88;;
65234;SDS011;51820;48.374;10.930;2023-03-02T14:37:01;20.77;;;10.95;;
65234;SDS011;51820;48.374;10.930;2023-03-02T14:39:36;22.27;;;11.70;;
65234;SDS011;51820;48.374;10.930;2023-03-02T14:42:10;25.25;;;12.82;;
65234;SDS011;51820;48.374;10.930;2023-03-02T14:44:40;25.92;;;12.40;;
65234;SDS011;51820;48.374;10.930;2023-03-02T14:47:08;23.85;;;12.45;;
65234;SDS011;51820;48.374;10.930;2023-03-02T14:49:40;26.50;;;13.68;;